メインページ
METAR-TAF:

METAR-TAF

空港 :

シャールジャ国際空港

シャールジャ, アラブ首長国連邦

緯度: 25-20N, 経度: 055-31E, 海抜: 35m

現時点の気象観測

当レポートは50分前の07:00(UTC)に作成
北西の風 7kt、西からの間で変化する
気温 31°C
湿度 27%
気圧 1008 hPa
視程10km以上
1,500メートル以下は雲なし、積乱雲なし

METAR: OMSJ 250700Z 32007KT 280V350 CAVOK 31/10 Q1008 NOSIG

時間: 11:50 (07:50 UTC)

予報

当レポートは2時間50分前の05:00(UTC)に作成
予報は25日の 06時(UTC)から 26日の 12時(UTC)まで有効
東/南東の風 5kt
視程: 8000m
25日の 06時(UTC)から 25日の 08時(UTC)まで徐々に
の風 13kt
25日の 14時(UTC)から 25日の 16時(UTC)まで徐々に
東/北東の風 7kt
26日の 08時(UTC)から 26日の 10時(UTC)まで徐々に
の風 13kt

TAF: OMSJ 250500Z 2506/2612 12005KT 8000 NSC BECMG 2506/2508 35013KT BECMG 2514/2516 06007KT BECMG 2608/2610 35013KT

4,000以上の空港の気象観測と天気予報(METAR報とTAF報)

利用可能な観測所は地図上に黄色い丸と赤い丸で示す。

丸の上にカーソルを重ねると観測所名を参照できる。

次にクリックすると気象観測と天気予報を参照できる。

マップの切り替え:黒色「×」印の緑ボタンをクリックして拡大、「-」印の緑ボタンをクリックして縮小、緑色の三角印をクリックして隣りの地図に切り替え


METAR-TAF: